createdAt,value
2023-02-18T00:03:45.849Z,87.63
2023-02-18T00:06:13.769Z,87.30
2023-02-18T00:08:42.221Z,92.05
2023-02-18T00:11:09.217Z,86.47
2023-02-18T00:13:36.579Z,86.03
2023-02-18T00:16:11.893Z,82.15
2023-02-18T00:18:40.260Z,80.25
2023-02-18T00:21:08.545Z,87.85
2023-02-18T00:23:35.762Z,81.90
2023-02-18T00:26:14.488Z,81.60
2023-02-18T00:28:42.127Z,80.47
2023-02-18T00:31:17.317Z,80.53
2023-02-18T00:33:44.481Z,81.05
2023-02-18T00:38:39.880Z,83.35
2023-02-18T00:41:06.971Z,79.90
2023-02-18T00:46:00.600Z,78.03
2023-02-18T00:48:27.566Z,74.00
2023-02-18T00:50:54.512Z,72.82
2023-02-18T00:53:22.614Z,77.70
2023-02-18T00:55:49.448Z,75.25
2023-02-18T00:58:16.380Z,80.45
2023-02-18T01:00:43.148Z,77.97
2023-02-18T01:03:10.209Z,82.65
2023-02-18T01:08:05.372Z,82.93
2023-02-18T01:10:32.684Z,85.78
2023-02-18T01:12:59.501Z,87.28
2023-02-18T01:15:26.720Z,86.65
2023-02-18T01:17:53.592Z,85.07
2023-02-18T01:20:22.130Z,79.35
2023-02-18T01:22:49.206Z,79.60
2023-02-18T01:27:43.176Z,82.47
2023-02-18T01:30:12.975Z,83.57
2023-02-18T01:32:39.906Z,88.85
2023-02-18T01:35:07.865Z,86.22
2023-02-18T01:37:38.774Z,91.60
2023-02-18T01:40:07.572Z,84.93
2023-02-18T01:42:34.502Z,88.63
2023-02-18T01:45:35.680Z,87.35
2023-02-18T01:48:08.589Z,85.65
2023-02-18T01:50:38.934Z,85.00
2023-02-18T01:53:06.293Z,83.30
2023-02-18T01:55:35.908Z,84.05
2023-02-18T01:58:03.364Z,84.13
2023-02-18T02:00:32.746Z,81.97
2023-02-18T02:02:59.602Z,88.78
2023-02-18T02:05:32.011Z,79.28
2023-02-18T02:08:00.268Z,86.85
2023-02-18T02:10:46.460Z,79.03
2023-02-18T02:13:29.668Z,77.35
2023-02-18T02:16:11.779Z,82.93
2023-02-18T02:18:53.250Z,80.38
2023-02-18T02:21:44.115Z,87.43
2023-02-18T02:24:35.719Z,81.65
2023-02-18T02:27:45.161Z,86.57
2023-02-18T02:30:42.114Z,84.35
2023-02-18T02:33:44.016Z,80.88
2023-02-18T02:36:24.069Z,76.28
2023-02-18T02:38:50.745Z,81.40
2023-02-18T02:41:31.546Z,78.88
2023-02-18T02:44:20.339Z,78.40
2023-02-18T02:46:52.317Z,86.07
2023-02-18T02:49:21.774Z,80.88
2023-02-18T02:52:01.658Z,86.82
2023-02-18T02:54:30.013Z,78.20
2023-02-18T02:57:13.534Z,82.78
2023-02-18T02:59:46.269Z,83.10
2023-02-18T03:02:24.675Z,85.35
2023-02-18T03:04:57.960Z,83.60
2023-02-18T03:07:49.411Z,85.45
2023-02-18T03:10:28.293Z,87.15
2023-02-18T03:13:01.821Z,86.90
2023-02-18T03:16:12.504Z,96.18
2023-02-18T03:18:43.983Z,97.07
2023-02-18T03:21:21.501Z,101.97
2023-02-18T03:23:58.916Z,92.38
2023-02-18T03:26:28.487Z,98.10
2023-02-18T03:28:58.880Z,101.05
2023-02-18T03:31:29.141Z,97.63
2023-02-18T03:34:02.386Z,100.43
2023-02-18T03:36:31.096Z,112.10
2023-02-18T03:39:05.263Z,116.03
2023-02-18T03:41:33.483Z,109.10
2023-02-18T03:44:09.279Z,110.30
2023-02-18T03:46:38.095Z,113.35
2023-02-18T03:49:05.679Z,108.22
2023-02-18T03:51:32.657Z,106.85
2023-02-18T03:53:59.466Z,103.82
2023-02-18T03:56:26.601Z,123.70
2023-02-18T04:01:20.482Z,128.68
2023-02-18T04:06:13.864Z,123.05
2023-02-18T04:08:40.678Z,134.95
2023-02-18T04:11:07.500Z,126.38
2023-02-18T04:13:34.290Z,126.10
2023-02-18T04:16:01.058Z,124.28
2023-02-18T04:18:27.879Z,118.97
2023-02-18T04:20:54.634Z,128.82
2023-02-18T04:23:21.553Z,128.18
2023-02-18T04:25:48.517Z,125.68
2023-02-18T04:28:16.867Z,125.40
2023-02-18T04:30:45.193Z,118.53
2023-02-18T04:33:12.433Z,126.57
2023-02-18T04:35:42.047Z,125.53
2023-02-18T04:38:10.628Z,132.85
2023-02-18T04:40:37.517Z,131.63
2023-02-18T04:43:04.457Z,150.85
2023-02-18T04:45:31.323Z,150.38
2023-02-18T04:47:58.283Z,131.07
2023-02-18T04:50:24.992Z,125.70
2023-02-18T04:52:51.743Z,131.07
2023-02-18T04:55:18.604Z,123.72
2023-02-18T04:57:45.356Z,115.20
2023-02-18T05:00:16.012Z,133.00
2023-02-18T05:02:43.386Z,120.88
2023-02-18T05:05:10.658Z,116.88
2023-02-18T05:07:37.498Z,118.20
2023-02-18T05:10:05.228Z,118.70
2023-02-18T05:12:32.039Z,132.73
2023-02-18T05:14:58.831Z,115.72
2023-02-18T05:17:25.603Z,119.78
2023-02-18T05:19:52.288Z,120.07
2023-02-18T05:22:21.696Z,123.45
2023-02-18T05:24:48.577Z,114.68
2023-02-18T05:27:15.361Z,111.78
2023-02-18T05:29:42.206Z,115.70
2023-02-18T05:32:09.038Z,106.72
2023-02-18T05:34:35.820Z,106.60
2023-02-18T05:37:02.734Z,141.02
2023-02-18T05:39:29.504Z,111.53
2023-02-18T05:41:56.273Z,103.25
2023-02-18T05:44:32.627Z,107.18
2023-02-18T05:47:04.084Z,106.18
2023-02-18T05:49:32.226Z,111.93
2023-02-18T05:51:59.178Z,110.80
2023-02-18T05:54:26.879Z,131.48
2023-02-18T05:56:54.607Z,209.98
2023-02-18T05:59:22.135Z,163.48
2023-02-18T06:01:48.984Z,141.98
2023-02-18T06:04:16.121Z,116.28
2023-02-18T06:06:43.513Z,179.15
2023-02-18T06:09:10.372Z,103.88
2023-02-18T06:11:37.880Z,106.72
2023-02-18T06:14:05.304Z,105.65
2023-02-18T06:16:32.683Z,104.18
2023-02-18T06:19:00.211Z,107.28
2023-02-18T06:21:27.078Z,108.72
2023-02-18T06:23:53.793Z,102.40
2023-02-18T06:26:20.736Z,140.50
2023-02-18T06:28:47.636Z,120.22
2023-02-18T06:31:14.679Z,169.82
2023-02-18T06:36:11.543Z,185.05
2023-02-18T06:38:40.418Z,137.65
2023-02-18T06:41:07.492Z,185.30
2023-02-18T06:43:35.199Z,183.75
2023-02-18T06:46:02.289Z,130.95
2023-02-18T06:48:29.338Z,169.68
2023-02-18T06:50:56.350Z,249.52
2023-02-18T06:53:23.354Z,174.18
2023-02-18T06:55:50.428Z,184.63
2023-02-18T06:58:17.830Z,182.38
2023-02-18T07:00:45.104Z,150.27
2023-02-18T07:05:39.887Z,152.75
2023-02-18T07:08:06.732Z,179.45
2023-02-18T07:10:33.672Z,156.25
2023-02-18T07:13:00.439Z,211.85
2023-02-18T07:15:27.958Z,171.65
2023-02-18T07:17:55.109Z,151.63
2023-02-18T07:22:48.868Z,150.88
2023-02-18T07:25:15.741Z,181.32
2023-02-18T07:27:42.662Z,154.55
2023-02-18T07:30:10.482Z,172.43
2023-02-18T07:32:37.465Z,166.93
2023-02-18T07:35:07.744Z,156.25
2023-02-18T07:37:34.550Z,155.43
2023-02-18T07:40:01.357Z,140.63
2023-02-18T07:42:28.105Z,149.77
2023-02-18T07:44:54.807Z,140.25
2023-02-18T07:47:21.730Z,148.93
2023-02-18T07:49:48.505Z,141.40
2023-02-18T07:52:16.354Z,136.57
2023-02-18T07:54:43.427Z,150.98
2023-02-18T07:57:10.295Z,127.50
2023-02-18T07:59:37.228Z,136.45
2023-02-18T08:02:05.515Z,129.55
2023-02-18T08:04:32.669Z,144.93
2023-02-18T08:06:59.471Z,130.27
2023-02-18T08:09:26.229Z,125.47
2023-02-18T08:11:52.991Z,125.57
2023-02-18T08:14:19.806Z,133.35
2023-02-18T08:16:46.720Z,130.40
2023-02-18T08:19:13.596Z,125.53
2023-02-18T08:21:40.713Z,130.35
2023-02-18T08:24:08.234Z,131.65
2023-02-18T08:26:35.261Z,132.65
2023-02-18T08:29:02.200Z,129.75
2023-02-18T08:31:30.889Z,126.13
2023-02-18T08:33:59.437Z,124.20
2023-02-18T08:36:27.286Z,132.85
2023-02-18T08:38:54.521Z,130.23
2023-02-18T08:41:21.463Z,125.05
2023-02-18T08:43:48.817Z,134.05
2023-02-18T08:46:25.020Z,124.93
2023-02-18T08:48:58.384Z,119.50
2023-02-18T08:51:26.208Z,136.35
2023-02-18T08:53:53.000Z,126.95
2023-02-18T08:56:19.737Z,125.70
2023-02-18T08:58:46.537Z,124.20
2023-02-18T09:01:14.112Z,124.57
2023-02-18T09:03:41.163Z,127.60
2023-02-18T09:06:08.094Z,118.40
2023-02-18T09:08:35.092Z,124.32
2023-02-18T09:11:04.703Z,119.90
2023-02-18T09:13:33.154Z,126.47
2023-02-18T09:16:03.513Z,123.13
2023-02-18T09:18:30.835Z,125.30
2023-02-18T09:20:59.543Z,125.05
2023-02-18T09:23:28.300Z,124.95
2023-02-18T09:25:55.203Z,125.72
2023-02-18T09:28:22.059Z,128.38
2023-02-18T09:30:48.878Z,124.40
2023-02-18T09:33:16.263Z,128.55
2023-02-18T09:35:44.869Z,121.15
2023-02-18T09:38:13.339Z,120.03
2023-02-18T09:40:45.734Z,124.68
2023-02-18T09:43:38.795Z,123.60
2023-02-18T09:46:14.134Z,125.22
2023-02-18T09:48:44.201Z,129.30
2023-02-18T09:51:14.878Z,131.52
2023-02-18T09:53:45.246Z,130.45
2023-02-18T09:56:16.016Z,130.07
2023-02-18T09:58:44.410Z,130.18
2023-02-18T10:01:25.121Z,133.27
2023-02-18T10:03:54.823Z,130.63
2023-02-18T10:06:26.392Z,127.93
2023-02-18T10:08:54.936Z,132.18
2023-02-18T10:11:30.489Z,137.38
2023-02-18T10:14:00.938Z,133.70
2023-02-18T10:16:27.718Z,138.52
2023-02-18T10:19:01.195Z,134.02
2023-02-18T10:21:33.028Z,138.75
2023-02-18T10:24:05.537Z,138.50
2023-02-18T10:26:35.650Z,139.43
2023-02-18T10:29:03.248Z,135.70
2023-02-18T10:31:39.655Z,140.35
2023-02-18T10:34:28.599Z,150.30
2023-02-18T10:37:25.740Z,141.15
2023-02-18T10:40:10.547Z,141.52
2023-02-18T10:42:46.121Z,136.48
2023-02-18T10:45:18.646Z,147.68
2023-02-18T10:48:07.134Z,141.18
2023-02-18T10:50:45.451Z,148.43
2023-02-18T10:53:27.162Z,140.07
2023-02-18T10:55:56.628Z,146.65
2023-02-18T10:58:28.056Z,155.27
2023-02-18T11:00:55.060Z,144.30
2023-02-18T11:03:24.587Z,161.93
2023-02-18T11:05:55.293Z,157.43
2023-02-18T11:08:28.229Z,161.45
2023-02-18T11:10:56.528Z,149.93
2023-02-18T11:13:31.783Z,163.40
2023-02-18T11:16:04.937Z,172.40
2023-02-18T11:18:41.763Z,164.65
2023-02-18T11:21:34.746Z,160.63
2023-02-18T11:24:10.322Z,159.10
2023-02-18T11:26:40.026Z,147.15
2023-02-18T11:29:21.569Z,150.13
2023-02-18T11:31:51.382Z,157.23
2023-02-18T11:34:26.626Z,147.10
2023-02-18T11:36:54.406Z,146.65
2023-02-18T11:39:27.738Z,151.18
2023-02-18T11:44:27.862Z,141.18
2023-02-18T11:47:02.526Z,149.23
2023-02-18T11:49:31.690Z,155.65
2023-02-18T11:52:06.011Z,152.98
2023-02-18T11:54:32.998Z,157.10
2023-02-18T11:59:35.130Z,146.35
2023-02-18T12:02:09.454Z,142.63
2023-02-18T12:04:46.040Z,152.30
2023-02-18T12:07:30.831Z,157.27
2023-02-18T12:10:00.775Z,153.65
2023-02-18T12:12:34.381Z,142.25
2023-02-18T12:15:01.321Z,149.82
2023-02-18T12:17:50.139Z,143.35
2023-02-18T12:20:36.290Z,147.18
2023-02-18T12:23:10.097Z,144.88
2023-02-18T12:25:43.446Z,142.10
2023-02-18T12:31:13.623Z,133.13
2023-02-18T12:34:06.966Z,139.07
2023-02-18T12:36:42.441Z,137.82
2023-02-18T12:39:23.248Z,139.80
2023-02-18T12:42:04.790Z,139.68
2023-02-18T12:44:45.635Z,139.77
2023-02-18T12:47:27.968Z,143.32
2023-02-18T12:50:49.613Z,137.93
2023-02-18T12:53:19.429Z,142.52
2023-02-18T12:55:52.080Z,139.88
2023-02-18T12:58:59.827Z,146.63
2023-02-18T13:01:51.441Z,140.43
2023-02-18T13:04:33.937Z,139.63
2023-02-18T13:07:31.801Z,137.43
2023-02-18T13:10:19.692Z,141.27
2023-02-18T13:13:04.710Z,139.77
2023-02-18T13:15:43.087Z,139.25
2023-02-18T13:18:16.233Z,134.48
2023-02-18T13:20:56.158Z,137.45
2023-02-18T13:23:28.014Z,129.43
2023-02-18T13:26:02.158Z,129.13
2023-02-18T13:29:02.464Z,139.27
2023-02-18T13:31:56.761Z,131.23
2023-02-18T13:34:35.675Z,128.65
2023-02-18T13:37:18.392Z,128.23
2023-02-18T13:39:52.386Z,128.90
2023-02-18T13:42:31.162Z,124.78
2023-02-18T13:44:58.003Z,122.38
2023-02-18T13:47:49.727Z,125.32
2023-02-18T13:50:22.680Z,122.70
2023-02-18T13:53:03.743Z,117.47
2023-02-18T13:55:50.376Z,124.15
2023-02-18T13:58:22.565Z,114.63
2023-02-18T14:00:59.509Z,120.45
2023-02-18T14:03:44.051Z,123.55
2023-02-18T14:06:36.363Z,131.60
2023-02-18T14:09:13.223Z,125.15
2023-02-18T14:11:46.861Z,126.70
2023-02-18T14:14:25.644Z,130.50
2023-02-18T14:17:20.225Z,126.32
2023-02-18T14:20:02.056Z,128.68
2023-02-18T14:22:33.577Z,130.35
2023-02-18T14:25:09.187Z,128.95
2023-02-18T14:27:37.042Z,129.10
2023-02-18T14:30:07.960Z,129.10
2023-02-18T14:32:35.077Z,125.90
2023-02-18T14:35:04.994Z,122.00
2023-02-18T14:37:54.049Z,123.60
2023-02-18T14:40:53.622Z,118.75
2023-02-18T14:43:49.162Z,113.20
2023-02-18T14:46:24.970Z,117.30
2023-02-18T14:48:51.809Z,113.75
2023-02-18T14:53:48.580Z,122.70
2023-02-18T14:56:18.625Z,110.55
2023-02-18T14:58:48.534Z,115.07
2023-02-18T15:01:22.910Z,113.50
2023-02-18T15:03:52.800Z,113.88
2023-02-18T15:06:33.086Z,110.40
2023-02-18T15:09:01.531Z,109.25
2023-02-18T15:11:40.769Z,116.10
2023-02-18T15:14:22.659Z,115.93
2023-02-18T15:16:50.044Z,123.88
2023-02-18T15:19:19.874Z,121.85
2023-02-18T15:21:49.133Z,128.75
2023-02-18T15:24:45.580Z,122.57
2023-02-18T15:27:18.869Z,118.50
2023-02-18T15:29:50.700Z,125.00
2023-02-18T15:32:24.528Z,130.48
2023-02-18T15:34:53.724Z,124.00
2023-02-18T15:37:20.713Z,123.05
2023-02-18T15:39:48.422Z,130.50
2023-02-18T15:42:37.848Z,123.85
2023-02-18T15:45:16.572Z,122.53
2023-02-18T15:47:53.372Z,125.22
2023-02-18T15:50:51.285Z,126.60
2023-02-18T15:53:20.892Z,119.88
2023-02-18T15:55:53.942Z,120.57
2023-02-18T15:58:32.939Z,115.50
2023-02-18T16:01:05.475Z,113.78
2023-02-18T16:03:40.966Z,121.32
2023-02-18T16:06:12.563Z,117.95
2023-02-18T16:08:41.143Z,111.30
2023-02-18T16:11:11.675Z,157.93
2023-02-18T16:13:47.299Z,114.75
2023-02-18T16:16:34.744Z,113.80
2023-02-18T16:19:02.269Z,120.32
2023-02-18T16:21:40.619Z,111.68
2023-02-18T16:24:28.967Z,121.10
2023-02-18T16:27:00.902Z,115.28
2023-02-18T16:29:36.491Z,115.20
2023-02-18T16:32:03.925Z,119.30
2023-02-18T16:34:30.771Z,116.30
2023-02-18T16:37:18.194Z,125.00
2023-02-18T16:39:45.046Z,114.80
2023-02-18T16:44:39.853Z,120.72
2023-02-18T16:47:08.145Z,119.55
2023-02-18T16:49:35.703Z,120.45
2023-02-18T16:52:07.115Z,123.22
2023-02-18T16:54:34.633Z,123.45
2023-02-18T16:57:01.439Z,124.80
2023-02-18T16:59:28.233Z,127.40
2023-02-18T17:01:56.037Z,125.60
2023-02-18T17:04:23.652Z,126.47
2023-02-18T17:06:50.575Z,123.03
2023-02-18T17:11:49.983Z,120.28
2023-02-18T17:14:19.406Z,121.30
2023-02-18T17:16:47.041Z,122.32
2023-02-18T17:19:14.592Z,122.97
2023-02-18T17:21:42.246Z,125.10
2023-02-18T17:24:13.390Z,126.85
2023-02-18T17:26:40.747Z,126.10
2023-02-18T17:29:07.869Z,123.13
2023-02-18T17:31:39.579Z,125.00
2023-02-18T17:34:08.511Z,131.07
2023-02-18T17:36:35.536Z,121.75
2023-02-18T17:39:06.555Z,132.63
2023-02-18T17:41:33.398Z,129.75
2023-02-18T17:46:26.908Z,130.95
2023-02-18T17:48:53.625Z,120.43
2023-02-18T17:51:26.274Z,133.18
2023-02-18T17:53:53.656Z,128.38
2023-02-18T17:56:22.457Z,130.90
2023-02-18T17:58:49.600Z,134.73
2023-02-18T18:01:18.532Z,141.65
2023-02-18T18:03:45.397Z,140.88
2023-02-18T18:06:17.784Z,130.15
2023-02-18T18:08:45.048Z,139.35
2023-02-18T18:11:16.694Z,136.70
2023-02-18T18:13:43.519Z,136.00
2023-02-18T18:16:12.411Z,135.30
2023-02-18T18:18:39.349Z,145.98
2023-02-18T18:23:33.915Z,136.35
2023-02-18T18:26:01.294Z,144.90
2023-02-18T18:28:28.468Z,149.65
2023-02-18T18:30:56.969Z,139.90
2023-02-18T18:33:29.842Z,134.98
2023-02-18T18:35:58.111Z,145.32
2023-02-18T18:38:26.832Z,138.65
2023-02-18T18:40:54.476Z,140.38
2023-02-18T18:43:27.057Z,136.20
2023-02-18T18:45:54.167Z,136.65
2023-02-18T18:48:22.243Z,142.30
2023-02-18T18:50:50.939Z,135.90
2023-02-18T18:53:26.514Z,141.82
2023-02-18T18:55:56.002Z,145.07
2023-02-18T18:58:24.619Z,143.13
2023-02-18T19:00:57.514Z,140.75
2023-02-18T19:03:26.831Z,139.18
2023-02-18T19:05:54.017Z,146.10
2023-02-18T19:08:21.271Z,138.35
2023-02-18T19:10:57.207Z,148.43
2023-02-18T19:13:29.536Z,144.15
2023-02-18T19:16:15.068Z,138.73
2023-02-18T19:18:41.947Z,140.27
2023-02-18T19:21:09.069Z,141.45
2023-02-18T19:23:36.493Z,151.00
2023-02-18T19:26:03.898Z,144.73
2023-02-18T19:28:31.112Z,135.60
2023-02-18T19:30:58.027Z,132.10
2023-02-18T19:33:26.234Z,131.50
2023-02-18T19:35:53.125Z,130.77
2023-02-18T19:40:50.126Z,131.35
2023-02-18T19:43:17.067Z,129.32
2023-02-18T19:48:13.164Z,123.60
2023-02-18T19:50:42.102Z,123.47
2023-02-18T19:53:11.974Z,125.13
2023-02-18T19:55:39.383Z,121.25
2023-02-18T19:58:06.838Z,133.90
2023-02-18T20:00:33.692Z,125.13
2023-02-18T20:03:00.543Z,124.78
2023-02-18T20:05:27.680Z,126.82
2023-02-18T20:07:54.550Z,120.85
2023-02-18T20:10:21.294Z,114.53
2023-02-18T20:12:52.958Z,124.55
2023-02-18T20:15:22.254Z,122.25
2023-02-18T20:17:49.681Z,119.65
2023-02-18T20:20:17.220Z,116.47
2023-02-18T20:22:44.033Z,125.47
2023-02-18T20:25:11.116Z,115.40
2023-02-18T20:27:45.191Z,121.40
2023-02-18T20:30:17.971Z,118.53
2023-02-18T20:35:11.942Z,114.85
2023-02-18T20:37:38.712Z,112.28
2023-02-18T20:40:05.924Z,118.22
2023-02-18T20:42:32.770Z,120.22
2023-02-18T20:44:59.550Z,118.60
2023-02-18T20:47:26.360Z,113.68
2023-02-18T20:49:53.211Z,116.65
2023-02-18T20:52:19.969Z,115.65
2023-02-18T20:54:46.703Z,117.88
2023-02-18T20:57:13.490Z,113.28
2023-02-18T20:59:40.224Z,126.22
2023-02-18T21:02:07.533Z,115.03
2023-02-18T21:04:34.355Z,120.82
2023-02-18T21:07:01.160Z,117.38
2023-02-18T21:09:27.929Z,119.75
2023-02-18T21:11:54.697Z,119.55
2023-02-18T21:14:21.466Z,118.10
2023-02-18T21:16:48.261Z,120.70
2023-02-18T21:19:17.502Z,112.63
2023-02-18T21:21:46.981Z,115.78
2023-02-18T21:24:14.093Z,111.10
2023-02-18T21:26:41.389Z,108.93
2023-02-18T21:29:09.056Z,115.88
2023-02-18T21:31:39.459Z,113.88
2023-02-18T21:34:07.941Z,113.65
2023-02-18T21:36:34.932Z,113.22
2023-02-18T21:41:30.223Z,114.38
2023-02-18T21:43:57.090Z,115.05
2023-02-18T21:46:29.526Z,114.40
2023-02-18T21:49:02.930Z,105.40
2023-02-18T21:51:50.708Z,117.82
2023-02-18T21:54:22.765Z,120.93
2023-02-18T21:56:50.380Z,113.65
2023-02-18T21:59:17.630Z,117.22
2023-02-18T22:01:44.774Z,109.95
2023-02-18T22:04:12.181Z,110.50
2023-02-18T22:06:38.930Z,108.93
2023-02-18T22:09:06.406Z,110.00
2023-02-18T22:11:34.309Z,107.32
2023-02-18T22:14:01.219Z,111.60
2023-02-18T22:16:28.692Z,111.93
2023-02-18T22:18:57.030Z,109.97
2023-02-18T22:21:26.757Z,107.50
2023-02-18T22:23:53.812Z,105.97
2023-02-18T22:28:55.649Z,102.32
2023-02-18T22:31:23.437Z,105.40
2023-02-18T22:33:52.140Z,101.90
2023-02-18T22:36:21.058Z,105.60
2023-02-18T22:38:48.713Z,105.75
2023-02-18T22:41:18.296Z,111.38
2023-02-18T22:43:45.110Z,110.30
2023-02-18T22:46:18.736Z,109.85
2023-02-18T22:48:45.594Z,111.68
2023-02-18T22:51:22.498Z,114.90
2023-02-18T22:53:49.431Z,112.07
2023-02-18T22:56:18.998Z,109.93
2023-02-18T22:58:47.743Z,113.32
2023-02-18T23:01:31.512Z,108.70
2023-02-18T23:04:03.970Z,116.18
2023-02-18T23:06:30.844Z,116.57
2023-02-18T23:08:57.814Z,106.25
2023-02-18T23:11:24.825Z,113.57
2023-02-18T23:16:56.385Z,120.68
2023-02-18T23:19:25.338Z,115.47
2023-02-18T23:21:52.285Z,120.95
2023-02-18T23:24:19.888Z,114.70
2023-02-18T23:26:47.134Z,117.32
2023-02-18T23:29:14.260Z,125.72
2023-02-18T23:31:41.221Z,122.40
2023-02-18T23:36:38.489Z,121.30
2023-02-18T23:39:10.398Z,117.38
2023-02-18T23:41:37.604Z,121.72
2023-02-18T23:44:05.933Z,126.40
2023-02-18T23:46:33.032Z,125.35
2023-02-18T23:49:00.890Z,119.85
2023-02-18T23:51:27.770Z,120.60
2023-02-18T23:53:54.524Z,120.80
2023-02-18T23:56:23.740Z,120.63
2023-02-18T23:58:54.729Z,123.57
